Time;durP1;ratioP1;P1;durP2;ratioP2;P2;SDS_P1;SDS_P2;PMS_P1;PMS_P2;Temp;Humidity;BMP_temperature;BMP_pressure;BME280_temperature;BME280_humidity;BME280_pressure;Samples;Min_cycle;Max_cycle;Signal;HPM_P1;HPM_P2
2022/02/18 00:04:43;;;;;;;17.87;2.33;;;;;;;3.82;100.00;99144.27;5132077;56;1134850;-71
2022/02/18 00:09:48;;;;;;;4.03;1.33;;;;;;;3.68;100.00;99155.34;5131942;56;1136793;-66
2022/02/18 00:14:55;;;;;;;4.10;0.90;;;;;;;3.54;100.00;99138.03;5152253;56;1203509;-67
2022/02/18 00:20:01;;;;;;;11.30;2.00;;;;;;;3.48;100.00;99137.17;5082211;56;1134681;-75
2022/02/18 00:25:08;;;;;;;13.03;1.87;;;;;;;3.50;100.00;99145.75;5066205;56;1136853;-73
2022/02/18 00:30:15;;;;;;;10.38;1.60;;;;;;;3.49;100.00;99155.84;5066095;56;1136990;-70
2022/02/18 00:35:21;;;;;;;10.30;1.63;;;;;;;3.51;100.00;99182.20;5065749;56;1136796;-70
2022/02/18 00:40:30;;;;;;;14.10;1.50;;;;;;;3.57;100.00;99190.57;5065841;56;1136772;-75
2022/02/18 00:45:37;;;;;;;12.43;2.17;;;;;;;3.64;100.00;99208.34;5065686;55;1136750;-71
2022/02/18 00:50:45;;;;;;;7.73;1.80;;;;;;;3.68;100.00;99209.78;5064226;56;1136786;-71
2022/02/18 00:55:51;;;;;;;6.80;1.50;;;;;;;3.71;100.00;99230.48;5059178;56;1135094;-76
2022/02/18 01:00:57;;;;;;;13.80;1.30;;;;;;;3.69;100.00;99239.37;5064640;56;1134575;-72
2022/02/18 01:06:03;;;;;;;3.50;1.10;;;;;;;3.68;100.00;99227.25;5064626;56;1136853;-71
2022/02/18 01:11:09;;;;;;;5.20;0.90;;;;;;;3.69;100.00;99253.29;5064886;56;1134704;-73
2022/02/18 01:16:15;;;;;;;8.53;1.93;;;;;;;3.70;100.00;99249.73;5068052;56;1134978;-78
2022/02/18 01:21:22;;;;;;;9.23;2.17;;;;;;;3.74;100.00;99247.75;5150666;56;1134821;-73
2022/02/18 01:26:27;;;;;;;10.40;1.60;;;;;;;3.73;100.00;99258.68;5150607;56;1134795;-79
2022/02/18 01:31:33;;;;;;;10.58;1.87;;;;;;;3.78;100.00;99267.52;5150658;56;1136701;-72
2022/02/18 01:36:39;;;;;;;10.93;3.13;;;;;;;3.82;100.00;99281.56;5151091;56;1136733;-72
2022/02/18 01:41:45;;;;;;;16.07;2.87;;;;;;;3.88;100.00;99293.39;5151170;56;1136805;-71
2022/02/18 01:46:50;;;;;;;21.27;1.50;;;;;;;3.95;100.00;99308.20;5151265;56;1136985;-74
2022/02/18 01:51:56;;;;;;;9.67;2.17;;;;;;;3.98;100.00;99314.50;5123336;56;1136637;-72
2022/02/18 01:57:03;;;;;;;8.48;1.57;;;;;;;4.03;100.00;99313.72;5142125;56;1134830;-68
2022/02/18 02:02:09;;;;;;;21.23;2.50;;;;;;;4.08;100.00;99315.55;5142328;56;1134663;-71
2022/02/18 02:07:15;;;;;;;5.47;1.00;;;;;;;4.11;100.00;99321.41;5142202;56;1137007;-75
2022/02/18 02:12:21;;;;;;;7.40;1.43;;;;;;;4.12;100.00;99344.48;5141987;56;1134642;-75
2022/02/18 02:17:29;;;;;;;6.73;1.53;;;;;;;4.16;100.00;99350.69;5120060;56;1134665;-72
2022/02/18 02:22:37;;;;;;;9.13;2.00;;;;;;;4.20;100.00;99342.99;5066187;57;1134751;-77
2022/02/18 02:27:43;;;;;;;6.60;1.87;;;;;;;4.23;100.00;99344.09;5066194;57;1134900;-72
2022/02/18 02:32:51;;;;;;;7.07;0.93;;;;;;;4.27;100.00;99342.10;5066121;57;1134736;-71
2022/02/18 02:37:57;;;;;;;11.23;2.13;;;;;;;4.25;100.00;99353.15;5066477;57;1134727;-74
2022/02/18 02:43:03;;;;;;;8.78;1.30;;;;;;;4.26;100.00;99356.13;5066005;57;1136821;-74
2022/02/18 02:48:09;;;;;;;3.80;1.12;;;;;;;4.22;100.00;99365.13;5066282;57;1134716;-77
2022/02/18 02:53:22;;;;;;;8.80;1.90;;;;;;;4.19;100.00;99379.73;5062883;57;1134635;-73
2022/02/18 02:58:29;;;;;;;9.47;2.10;;;;;;;4.12;100.00;99383.73;5064483;57;1134895;-74
2022/02/18 03:03:35;;;;;;;8.60;1.30;;;;;;;4.04;100.00;99419.56;5064984;57;1134616;-74
2022/02/18 03:08:42;;;;;;;6.83;1.50;;;;;;;4.04;100.00;99416.95;5064937;57;1134719;-69
2022/02/18 03:13:53;;;;;;;10.77;1.57;;;;;;;3.98;100.00;99430.91;5062585;57;1134532;-73
2022/02/18 03:18:59;;;;;;;2.13;1.20;;;;;;;3.94;100.00;99425.53;5115719;56;1136950;-75
2022/02/18 03:24:06;;;;;;;8.27;1.67;;;;;;;3.96;100.00;99439.36;5151238;56;1134680;-76
2022/02/18 03:29:12;;;;;;;7.47;1.72;;;;;;;3.94;100.00;99465.61;5151216;56;1134536;-72
2022/02/18 03:34:31;;;;;;;6.30;1.67;;;;;;;3.87;100.00;99466.95;5141725;56;1134786;-70
2022/02/18 03:39:36;;;;;;;7.37;1.17;;;;;;;3.82;100.00;99479.02;5142117;56;1134535;-72
2022/02/18 03:44:43;;;;;;;6.50;1.73;;;;;;;3.84;100.00;99477.14;5141817;56;1134628;-75
2022/02/18 03:49:48;;;;;;;10.80;3.60;;;;;;;3.89;100.00;99484.69;5065915;57;1134982;-72
2022/02/18 03:54:55;;;;;;;55.10;24.63;;;;;;;3.95;100.00;99496.06;5143965;56;1136697;-77
2022/02/18 04:00:01;;;;;;;9.37;4.07;;;;;;;3.96;100.00;99491.67;5141767;56;1140461;-72
2022/02/18 04:05:09;;;;;;;17.57;10.10;;;;;;;3.97;100.00;99502.50;5141872;56;1134472;-77
2022/02/18 04:10:17;;;;;;;17.63;8.57;;;;;;;4.00;100.00;99517.97;5134105;56;1138855;-73
2022/02/18 04:15:22;;;;;;;11.23;2.97;;;;;;;3.97;100.00;99512.97;5109285;56;1136629;-70
2022/02/18 04:20:29;;;;;;;5.07;1.80;;;;;;;3.94;100.00;99502.70;5074141;56;1136625;-75
2022/02/18 04:25:36;;;;;;;20.93;2.87;;;;;;;3.93;100.00;99519.33;5065989;57;1134606;-74
2022/02/18 04:30:42;;;;;;;9.27;3.13;;;;;;;3.84;100.00;99524.22;5065729;57;1136773;-74
2022/02/18 04:35:48;;;;;;;12.37;1.70;;;;;;;3.85;100.00;99529.81;5135837;56;1134593;-74
2022/02/18 04:40:55;;;;;;;10.32;2.40;;;;;;;3.83;100.00;99542.63;5148403;56;1136826;-70
2022/02/18 04:46:01;;;;;;;34.17;5.20;;;;;;;3.82;100.00;99551.41;5150932;56;1136854;-73
2022/02/18 04:51:07;;;;;;;21.37;3.37;;;;;;;3.73;100.00;99545.48;5109431;56;1137020;-74
2022/02/18 04:56:13;;;;;;;11.80;2.10;;;;;;;3.67;100.00;99545.39;5139173;56;1136748;-76
2022/02/18 05:01:18;;;;;;;9.67;1.63;;;;;;;3.68;100.00;99544.92;5078156;56;1136722;-75
2022/02/18 05:06:24;;;;;;;5.30;1.53;;;;;;;3.69;100.00;99559.68;5056125;57;1134942;-74
2022/02/18 05:11:30;;;;;;;15.43;2.60;;;;;;;3.67;100.00;99555.02;5077985;56;1134894;-76
2022/02/18 05:16:35;;;;;;;11.73;3.43;;;;;;;3.65;100.00;99552.53;5073357;56;1137001;-70
2022/02/18 05:21:42;;;;;;;9.67;2.90;;;;;;;3.64;100.00;99560.47;5052524;57;1136956;-73
2022/02/18 05:26:47;;;;;;;11.67;2.27;;;;;;;3.63;100.00;99566.63;5009741;57;1134812;-71
2022/02/18 05:31:54;;;;;;;14.07;2.23;;;;;;;3.62;100.00;99576.72;5064724;56;1136994;-74
2022/02/18 05:37:00;;;;;;;15.75;2.85;;;;;;;3.63;100.00;99580.55;5117694;56;1136913;-74
2022/02/18 05:42:06;;;;;;;9.30;1.95;;;;;;;3.62;100.00;99587.17;5060825;57;1175196;-70
2022/02/18 05:47:11;;;;;;;12.50;2.55;;;;;;;3.60;100.00;99596.89;5049907;57;1231572;-71
2022/02/18 05:52:17;;;;;;;11.90;2.33;;;;;;;3.61;100.00;99594.64;5051465;57;1136806;-71
2022/02/18 05:57:23;;;;;;;13.78;2.40;;;;;;;3.58;100.00;99589.14;5051259;57;1136751;-73
2022/02/18 06:02:29;;;;;;;6.40;1.63;;;;;;;3.57;100.00;99592.69;5051033;57;1136862;-75
2022/02/18 06:07:35;;;;;;;9.87;1.77;;;;;;;3.57;100.00;99603.61;5051525;57;1135005;-67
2022/02/18 06:12:41;;;;;;;8.47;1.77;;;;;;;3.55;100.00;99607.63;5041324;56;1134973;-75
2022/02/18 06:17:47;;;;;;;9.27;1.90;;;;;;;3.52;100.00;99614.34;5064981;56;1134879;-75
2022/02/18 06:22:52;;;;;;;7.60;1.67;;;;;;;3.51;100.00;99630.50;5049096;56;1134861;-71
2022/02/18 06:28:08;;;;;;;11.60;2.73;;;;;;;3.50;100.00;99630.63;5026182;56;1134853;-74
2022/02/18 06:33:14;;;;;;;7.70;2.02;;;;;;;3.49;100.00;99636.32;5057986;56;1136803;-74
2022/02/18 06:38:20;;;;;;;12.17;2.70;;;;;;;3.44;100.00;99657.14;5038435;56;1134789;-74
2022/02/18 06:43:26;;;;;;;13.23;1.67;;;;;;;3.44;100.00;99672.81;4983063;56;1136836;-73
2022/02/18 06:48:33;;;;;;;14.60;4.17;;;;;;;3.43;100.00;99672.44;4964992;57;1136737;-71
2022/02/18 06:53:39;;;;;;;15.20;2.47;;;;;;;3.48;100.00;99678.23;4965120;57;1136862;-72
2022/02/18 06:58:44;;;;;;;9.17;1.97;;;;;;;3.47;100.00;99676.55;4977425;57;1136883;-74
2022/02/18 07:03:52;;;;;;;10.13;1.87;;;;;;;3.50;100.00;99677.68;5005898;56;1134735;-72
2022/02/18 07:08:59;;;;;;;11.90;1.80;;;;;;;3.53;100.00;99707.53;5028181;57;1136852;-71
2022/02/18 07:14:07;;;;;;;11.60;2.47;;;;;;;3.53;100.00;99707.53;5006439;56;1136797;-73
2022/02/18 07:19:15;;;;;;;11.25;2.15;;;;;;;3.54;100.00;99705.29;5049804;56;1136812;-72
2022/02/18 07:24:21;;;;;;;7.93;2.37;;;;;;;3.61;100.00;99703.15;5073468;56;1136761;-73
2022/02/18 07:29:27;;;;;;;12.57;1.80;;;;;;;3.68;100.00;99692.66;5060709;57;1134829;-71
2022/02/18 07:34:33;;;;;;;12.70;3.27;;;;;;;3.71;100.00;99703.78;5150544;56;1136783;-74
2022/02/18 07:39:39;;;;;;;11.00;2.40;;;;;;;3.76;100.00;99704.81;5150655;56;1136822;-71
2022/02/18 07:44:44;;;;;;;13.33;2.60;;;;;;;3.78;100.00;99700.33;5148467;56;1136779;-69
2022/02/18 07:49:50;;;;;;;15.80;3.63;;;;;;;3.88;100.00;99712.72;5141349;56;1136723;-74
2022/02/18 07:54:56;;;;;;;11.80;2.33;;;;;;;4.12;100.00;99709.50;5134503;56;1136880;-73
2022/02/18 08:00:05;;;;;;;48.60;22.30;;;;;;;4.30;99.53;99704.84;5140824;56;1136728;-75
2022/02/18 08:05:13;;;;;;;8.98;2.55;;;;;;;4.45;99.25;99729.55;5071857;56;1136803;-69
2022/02/18 08:10:18;;;;;;;25.77;6.33;;;;;;;4.56;99.48;99718.40;5123801;56;1132450;-75
2022/02/18 08:15:24;;;;;;;8.23;2.20;;;;;;;4.61;99.46;99713.68;5096430;56;1134771;-73
2022/02/18 08:20:30;;;;;;;18.07;5.40;;;;;;;4.76;99.07;99715.75;5121419;56;1132466;-71
2022/02/18 08:25:36;;;;;;;28.73;4.53;;;;;;;4.90;97.86;99714.36;5121872;56;1134587;-73
2022/02/18 08:30:41;;;;;;;25.40;4.90;;;;;;;4.82;97.09;99720.13;5123659;56;1134529;-71
2022/02/18 08:35:47;;;;;;;15.05;3.20;;;;;;;4.87;98.34;99736.39;5125501;56;1134736;-74
2022/02/18 08:40:53;;;;;;;19.20;5.30;;;;;;;4.88;97.33;99731.98;5131178;56;1134747;-75
2022/02/18 08:45:59;;;;;;;24.50;5.70;;;;;;;4.98;96.45;99741.37;5123674;56;1134813;-69
2022/02/18 08:51:04;;;;;;;16.07;2.73;;;;;;;5.02;97.23;99750.25;5086342;56;1134456;-71
2022/02/18 08:56:10;;;;;;;18.95;3.70;;;;;;;5.02;97.23;99750.25;5120900;56;1134534;-73
2022/02/18 09:01:16;;;;;;;10.60;2.43;;;;;;;5.26;97.24;99751.67;5127480;56;1134693;-69
2022/02/18 09:06:23;;;;;;;20.07;3.73;;;;;;;5.38;95.37;99744.27;5151333;56;1134707;-70
2022/02/18 09:11:29;;;;;;;55.30;30.33;;;;;;;5.41;94.39;99755.88;5151218;56;1134473;-74
2022/02/18 09:16:35;;;;;;;48.27;10.40;;;;;;;5.54;94.37;99759.33;5149067;56;1136698;-75
2022/02/18 09:21:40;;;;;;;36.67;5.73;;;;;;;5.56;92.78;99761.84;5150414;56;1136724;-70
2022/02/18 09:26:47;;;;;;;17.20;3.03;;;;;;;5.65;93.64;99762.54;5151382;56;1134592;-72
2022/02/18 09:31:54;;;;;;;23.67;4.53;;;;;;;5.76;92.98;99760.00;5144878;56;1134639;-70
2022/02/18 09:37:00;;;;;;;16.23;3.20;;;;;;;5.91;92.98;99762.89;5129556;56;1134587;-73
2022/02/18 09:42:06;;;;;;;16.40;3.60;;;;;;;6.03;92.32;99761.66;5070699;56;1138554;-74
2022/02/18 09:47:16;;;;;;;24.30;4.72;;;;;;;6.12;91.26;99760.98;5070724;56;1134612;-75
2022/02/18 09:52:23;;;;;;;25.67;4.80;;;;;;;6.06;89.36;99760.97;5110395;56;1134704;-73
2022/02/18 09:57:29;;;;;;;23.50;5.00;;;;;;;6.08;88.23;99768.27;5148955;56;1134672;-71
2022/02/18 10:02:36;;;;;;;35.23;5.77;;;;;;;6.17;88.81;99764.97;5148432;56;1134758;-74
2022/02/18 10:08:12;;;;;;;14.33;4.23;;;;;;;6.28;88.60;99751.91;5149851;56;1134809;-75
2022/02/18 10:13:39;;;;;;;36.83;8.17;;;;;;;6.40;87.15;99734.45;5149714;56;1134729;-75
2022/02/18 10:18:59;;;;;;;21.03;3.73;;;;;;;6.44;88.87;99738.50;5099003;56;1134728;-77
2022/02/18 10:24:22;;;;;;;21.76;4.12;;;;;;;6.62;88.94;99729.28;5081137;57;1134790;-73
2022/02/18 10:29:27;;;;;;;45.53;9.60;;;;;;;6.67;84.30;99715.81;5054275;57;1134670;-72
2022/02/18 10:34:53;;;;;;;36.00;8.27;;;;;;;6.68;85.65;99714.38;5066936;55;1134666;-73
2022/02/18 10:40:18;;;;;;;23.40;3.63;;;;;;;6.73;85.12;99698.73;5134760;56;1134737;-75
2022/02/18 10:45:29;;;;;;;29.23;6.00;;;;;;;6.79;82.75;99685.98;5149718;56;1134741;-74
2022/02/18 10:50:35;;;;;;;25.17;6.37;;;;;;;6.91;85.49;99687.68;5139673;56;1134661;-74
2022/02/18 10:55:57;;;;;;;15.27;3.10;;;;;;;6.95;81.56;99673.83;5144381;56;1134571;-74
2022/02/18 11:01:16;;;;;;;14.63;3.87;;;;;;;6.97;79.93;99667.51;5104702;56;1134572;-73
2022/02/18 11:06:24;;;;;;;10.93;2.10;;;;;;;6.96;79.63;99671.09;5151215;56;1134829;-71
2022/02/18 11:11:39;;;;;;;5.23;1.43;;;;;;;6.99;77.80;99663.45;5083319;56;1134527;-74
2022/02/18 11:16:58;;;;;;;12.82;4.85;;;;;;;7.01;75.02;99657.61;5076199;56;1132421;-72
2022/02/18 11:21:56;;;;;;;23.93;12.07;;;;;;;7.17;78.38;99649.38;5141290;56;1134497;-73
2022/02/18 11:27:03;;;;;;;64.20;16.40;;;;;;;7.37;80.45;99639.44;5080888;56;1136728;-75
2022/02/18 11:32:27;;;;;;;28.57;5.83;;;;;;;7.52;76.23;99629.02;5104626;56;1136593;-79
2022/02/18 11:37:46;;;;;;;12.50;3.77;;;;;;;7.65;77.92;99628.88;5148922;56;1134846;-73
2022/02/18 11:43:19;;;;;;;26.90;10.23;;;;;;;7.73;76.72;99620.75;5148560;56;1134649;-70
2022/02/18 11:48:44;;;;;;;14.93;7.23;;;;;;;7.89;73.66;99624.30;5071755;56;1136930;-74
2022/02/18 11:53:57;;;;;;;9.70;2.20;;;;;;;7.95;76.34;99600.56;5092780;56;1134881;-73
2022/02/18 11:59:04;;;;;;;;;;;;;;;8.08;74.29;99590.25;5147567;56;1132825;-74
2022/02/18 12:04:19;;;;;;;6.92;2.02;;;;;;;8.27;76.50;99591.34;5164917;56;970096;-76
2022/02/18 12:09:46;;;;;;;12.13;3.13;;;;;;;8.44;73.54;99585.55;5139332;56;1130647;-74
2022/02/18 12:14:52;;;;;;;13.57;4.00;;;;;;;8.46;74.09;99582.30;5076976;56;1134837;-80
2022/02/18 12:20:14;;;;;;;13.60;4.33;;;;;;;8.54;73.83;99577.24;5105729;56;1134833;-73
2022/02/18 12:25:31;;;;;;;9.85;2.22;;;;;;;8.65;75.51;99553.92;5137277;56;1134955;-70
2022/02/18 12:30:40;;;;;;;15.60;3.37;;;;;;;8.62;72.71;99556.81;5053605;56;1132739;-75
2022/02/18 12:35:46;;;;;;;12.33;3.80;;;;;;;8.58;74.68;99537.78;5052507;56;1134610;-71
2022/02/18 12:40:52;;;;;;;26.37;9.67;;;;;;;8.47;73.79;99522.05;5052292;56;1134628;-71
2022/02/18 12:46:02;;;;;;;15.50;5.07;;;;;;;8.31;73.55;99515.89;5052696;56;1134745;-69
2022/02/18 12:51:14;;;;;;;8.57;2.93;;;;;;;8.20;74.34;99502.80;4988862;57;1255980;-77
2022/02/18 12:56:26;;;;;;;9.05;2.87;;;;;;;8.10;74.69;99487.39;4979505;57;1132431;-78
2022/02/18 13:01:33;;;;;;;9.07;2.97;;;;;;;8.08;75.34;99491.50;4979251;57;1132435;-75
2022/02/18 13:06:39;;;;;;;5.93;2.23;;;;;;;8.18;76.28;99478.86;4979318;57;1132562;-75
2022/02/18 13:11:45;;;;;;;13.20;4.40;;;;;;;8.25;75.77;99466.34;4978887;57;1132733;-72
2022/02/18 13:16:51;;;;;;;12.40;4.00;;;;;;;8.24;76.35;99450.70;5004089;56;1134513;-71
2022/02/18 13:21:57;;;;;;;10.77;3.93;;;;;;;8.32;78.39;99440.37;5146060;55;1134579;-72
2022/02/18 13:27:15;;;;;;;10.37;3.33;;;;;;;8.38;78.21;99438.05;5152082;56;1134536;-75
2022/02/18 13:32:21;;;;;;;6.20;2.62;;;;;;;8.38;77.26;99427.52;5193931;56;1134537;-72
2022/02/18 13:37:27;;;;;;;14.53;3.20;;;;;;;8.36;77.55;99420.70;5194250;55;1132591;-74
2022/02/18 13:42:55;;;;;;;12.27;3.47;;;;;;;8.33;78.36;99407.79;5193373;55;1134557;-79
2022/02/18 13:48:01;;;;;;;13.20;3.90;;;;;;;8.31;79.56;99397.83;5192835;55;1134706;-74
2022/02/18 13:53:06;;;;;;;12.30;3.60;;;;;;;8.30;80.16;99379.04;5054557;57;1134711;-75
2022/02/18 13:58:28;;;;;;;10.87;3.30;;;;;;;8.29;80.16;99363.72;5041799;56;1134723;-75
2022/02/18 14:03:34;;;;;;;7.43;2.33;;;;;;;8.19;81.02;99336.52;4974793;57;1134729;-80
2022/02/18 14:08:39;;;;;;;9.40;3.17;;;;;;;8.22;80.61;99330.98;5013389;56;1132742;-75
2022/02/18 14:13:45;;;;;;;12.40;2.60;;;;;;;8.22;81.14;99318.30;5059678;56;1133010;-75
2022/02/18 14:19:02;;;;;;;34.13;11.43;;;;;;;8.20;81.70;99284.19;4979208;58;1134692;-73
2022/02/18 14:24:08;;;;;;;16.17;6.40;;;;;;;8.18;81.29;99270.32;5087622;56;1136761;-77
2022/02/18 14:29:16;;;;;;;17.12;4.90;;;;;;;8.20;82.28;99254.39;5037866;56;1134560;-74
2022/02/18 14:34:22;;;;;;;20.15;8.58;;;;;;;8.21;82.15;99244.20;5003329;56;1134570;-71
2022/02/18 14:39:29;;;;;;;31.95;11.57;;;;;;;8.22;82.19;99235.34;4970561;57;1134813;-76
2022/02/18 14:45:00;;;;;;;50.13;18.07;;;;;;;8.22;81.91;99224.80;4966673;57;1136837;-76
2022/02/18 14:50:08;;;;;;;22.83;8.87;;;;;;;8.23;83.42;99215.94;4968238;57;1136998;-78
2022/02/18 14:55:14;;;;;;;10.93;3.47;;;;;;;8.22;82.83;99203.25;4968408;57;1134723;-69
2022/02/18 15:00:22;;;;;;;58.95;22.90;;;;;;;8.19;82.22;99197.41;4982792;57;1134851;-73
2022/02/18 15:05:32;;;;;;;45.50;15.30;;;;;;;8.18;83.06;99183.89;5043191;56;1136881;-74
2022/02/18 15:10:37;;;;;;;17.43;4.20;;;;;;;8.10;82.28;99153.80;5053269;56;1136697;-75
2022/02/18 15:15:43;;;;;;;26.60;8.90;;;;;;;7.99;83.34;99151.77;5042026;56;1134758;-77
2022/02/18 15:20:49;;;;;;;4.97;2.70;;;;;;;7.80;84.69;99153.04;5073052;56;1134791;-76
2022/02/18 15:25:55;;;;;;;11.53;3.33;;;;;;;7.62;86.18;99144.50;4996289;57;1132585;-75
2022/02/18 15:36:24;;;;;;;23.83;6.65;;;;;;;7.36;90.20;99124.86;5056445;56;1136625;-72
2022/02/18 15:46:54;;;;;;;35.13;14.90;;;;;;;7.13;93.50;99072.96;5123626;56;1140757;-71
2022/02/18 15:52:01;;;;;;;34.70;19.57;;;;;;;7.07;94.39;99052.45;5048266;57;1136612;-72
2022/02/18 15:57:09;;;;;;;108.67;30.37;;;;;;;7.00;94.73;99044.28;4963143;58;1138857;-75
2022/02/18 16:02:15;;;;;;;22.93;10.90;;;;;;;7.01;94.70;99012.25;4967831;58;1138830;-75
2022/02/18 16:07:20;;;;;;;57.83;15.00;;;;;;;6.95;96.09;98999.63;4917319;58;1136616;-76
2022/02/18 16:12:26;;;;;;;17.70;5.43;;;;;;;6.91;96.03;98983.77;4888544;58;1138716;-71
2022/02/18 16:17:32;;;;;;;14.93;5.50;;;;;;;6.77;97.21;98981.52;4935636;58;1134720;-73
2022/02/18 16:22:38;;;;;;;11.63;4.50;;;;;;;6.66;98.53;98968.83;4904151;58;1136623;-73
2022/02/18 16:27:44;;;;;;;28.50;10.40;;;;;;;6.54;100.00;98950.67;4857180;58;1134675;-75
2022/02/18 16:32:50;;;;;;;13.98;4.05;;;;;;;6.46;100.00;98922.91;4825085;58;1140839;-75
2022/02/18 16:37:56;;;;;;;8.33;3.50;;;;;;;6.34;100.00;98932.67;4891805;57;1138607;-71
2022/02/18 16:43:01;;;;;;;7.00;3.73;;;;;;;6.15;100.00;98903.21;4944102;57;1136902;-74
2022/02/18 16:48:07;;;;;;;5.17;2.47;;;;;;;6.02;100.00;98896.03;4899599;59;1136814;-74
2022/02/18 16:53:13;;;;;;;9.53;3.07;;;;;;;5.87;100.00;98872.37;4975273;56;1136729;-76
2022/02/18 16:58:19;;;;;;;57.20;23.80;;;;;;;5.77;100.00;98856.59;4932080;57;1136919;-74
2022/02/18 17:03:25;;;;;;;10.85;5.42;;;;;;;5.69;100.00;98828.84;5010439;58;1138823;-73
2022/02/18 17:08:31;;;;;;;7.22;2.80;;;;;;;5.64;100.00;98806.13;5008350;57;1139307;-71
2022/02/18 17:13:38;;;;;;;5.58;3.02;;;;;;;5.63;100.00;98779.55;4972400;58;1136778;-74
2022/02/18 17:18:44;;;;;;;7.13;3.23;;;;;;;5.63;100.00;98738.42;4954702;57;1136921;-74
2022/02/18 17:23:49;;;;;;;12.60;5.17;;;;;;;5.66;100.00;98726.81;4962880;57;1134988;-69
2022/02/18 17:28:56;;;;;;;6.27;2.93;;;;;;;5.65;100.00;98702.89;5140953;56;1139006;-74
2022/02/18 17:34:02;;;;;;;7.87;2.17;;;;;;;5.63;100.00;98675.96;5137610;56;1136828;-73
2022/02/18 17:39:07;;;;;;;18.20;9.60;;;;;;;5.55;100.00;98658.73;5085654;55;1134874;-72
2022/02/18 17:44:13;;;;;;;44.20;21.73;;;;;;;5.45;100.00;98636.91;5149640;55;1139105;-76
2022/02/18 17:49:22;;;;;;;13.07;4.60;;;;;;;5.42;100.00;98626.68;5148569;56;1141053;-72
2022/02/18 17:54:27;;;;;;;17.57;8.30;;;;;;;5.47;100.00;98589.94;5165794;55;1139030;-76
2022/02/18 17:59:33;;;;;;;10.73;4.43;;;;;;;5.47;100.00;98589.94;5196285;55;1138924;-72
2022/02/18 18:04:39;;;;;;;10.93;5.53;;;;;;;5.44;100.00;98573.16;5118755;56;1138866;-76
2022/02/18 18:09:49;;;;;;;19.60;5.30;;;;;;;5.47;100.00;98562.41;5218553;55;1138905;-72
2022/02/18 18:14:56;;;;;;;19.73;5.63;;;;;;;5.51;100.00;98541.97;5208873;55;1138980;-74
2022/02/18 18:20:02;;;;;;;15.18;4.42;;;;;;;5.49;100.00;98527.72;5086520;56;1138816;-74
2022/02/18 18:25:08;;;;;;;12.80;4.70;;;;;;;5.47;100.00;98520.46;5149430;55;1138828;-72
2022/02/18 18:30:14;;;;;;;10.35;4.72;;;;;;;5.51;100.00;98486.43;5069301;56;1139272;-74
2022/02/18 18:35:21;;;;;;;14.75;5.62;;;;;;;5.51;100.00;98475.11;5107977;56;1138772;-74
2022/02/18 18:40:28;;;;;;;10.90;5.87;;;;;;;5.55;100.00;98440.63;5146625;55;1138970;-75
2022/02/18 18:45:35;;;;;;;20.53;7.07;;;;;;;5.59;100.00;98435.94;5063402;56;1138812;-80
2022/02/18 18:50:41;;;;;;;81.80;26.60;;;;;;;5.65;100.00;98407.86;5149383;55;1138865;-72
2022/02/18 18:55:47;;;;;;;30.97;9.23;;;;;;;5.66;100.00;98400.31;5148746;55;1140917;-73
2022/02/18 19:00:53;;;;;;;58.20;18.27;;;;;;;5.72;100.00;98368.30;5062578;56;1139546;-73
2022/02/18 19:05:59;;;;;;;36.93;13.20;;;;;;;5.80;100.00;98359.25;5063290;56;1140875;-79
2022/02/18 19:11:07;;;;;;;51.47;16.40;;;;;;;5.86;100.00;98321.11;5042722;56;1141108;-75
2022/02/18 19:16:15;;;;;;;32.47;12.17;;;;;;;5.86;100.00;98312.76;4957435;56;1141266;-75
2022/02/18 19:21:21;;;;;;;35.63;12.55;;;;;;;5.87;100.00;98299.16;5014594;56;1141074;-74
2022/02/18 19:26:26;;;;;;;45.08;14.43;;;;;;;5.82;100.00;98260.72;5082236;56;1141020;-73
2022/02/18 19:31:34;;;;;;;30.57;11.45;;;;;;;5.96;100.00;98254.54;5115341;56;1140908;-72
2022/02/18 19:36:42;;;;;;;31.90;12.70;;;;;;;6.01;100.00;98238.38;5115240;56;1140917;-77
2022/02/18 19:41:47;;;;;;;33.80;11.80;;;;;;;6.07;100.00;98239.59;4978035;57;1141192;-73
2022/02/18 19:46:53;;;;;;;35.53;14.50;;;;;;;6.16;100.00;98213.77;5035313;56;1140818;-72
2022/02/18 19:52:02;;;;;;;26.00;10.43;;;;;;;6.23;100.00;98199.10;5029859;57;1141032;-74
2022/02/18 19:57:06;;;;;;;12.20;3.17;;;;;;;6.30;100.00;98184.39;4964765;58;1140912;-74
2022/02/18 20:02:12;;;;;;;13.80;3.80;;;;;;;6.36;100.00;98164.12;5052508;56;1138812;-74
2022/02/18 20:07:20;;;;;;;13.23;5.10;;;;;;;6.45;100.00;98162.38;5028493;57;1138908;-75
2022/02/18 20:12:25;;;;;;;10.23;3.77;;;;;;;6.51;100.00;98164.41;4946479;58;1138789;-74
2022/02/18 20:17:31;;;;;;;12.07;3.83;;;;;;;6.62;100.00;98148.41;5110258;56;1139147;-76
2022/02/18 20:22:37;;;;;;;13.97;5.27;;;;;;;6.77;100.00;98127.19;5070170;56;1139236;-75
2022/02/18 20:27:43;;;;;;;14.17;3.63;;;;;;;6.90;100.00;98110.52;5128751;56;1138880;-75
2022/02/18 20:32:49;;;;;;;19.97;4.60;;;;;;;7.03;100.00;98110.10;5119827;56;1138831;-73
2022/02/18 20:37:55;;;;;;;10.77;4.20;;;;;;;7.18;100.00;98067.01;5111563;56;1138865;-75
2022/02/18 20:43:01;;;;;;;9.47;3.97;;;;;;;7.30;100.00;98064.42;5123859;55;1139038;-76
2022/02/18 20:48:07;;;;;;;10.73;3.53;;;;;;;7.41;100.00;98051.81;5217589;55;1136726;-77
2022/02/18 20:53:13;;;;;;;14.57;4.27;;;;;;;7.51;100.00;98033.25;5217950;55;1139145;-73
2022/02/18 20:58:19;;;;;;;10.77;3.67;;;;;;;7.60;100.00;98027.05;5116701;56;1138769;-74
2022/02/18 21:03:25;;;;;;;19.50;4.23;;;;;;;7.73;100.00;98013.42;5204015;55;1138824;-75
2022/02/18 21:08:34;;;;;;;4.20;2.47;;;;;;;7.82;100.00;98057.66;5157653;55;1138891;-75
2022/02/18 21:13:39;;;;;;;14.60;4.43;;;;;;;7.95;100.00;98031.19;5199725;55;1136794;-74
2022/02/18 21:18:45;;;;;;;18.70;5.73;;;;;;;7.98;100.00;98008.99;5217444;55;1138797;-75
2022/02/18 21:23:51;;;;;;;11.67;4.97;;;;;;;8.10;100.00;97990.56;5215346;55;1138703;-74
2022/02/18 21:28:56;;;;;;;9.53;3.80;;;;;;;8.13;100.00;98067.41;5207209;55;1138758;-75
2022/02/18 21:34:02;;;;;;;11.47;3.57;;;;;;;8.17;100.00;98027.10;5208096;55;1136802;-75
2022/02/18 21:39:08;;;;;;;19.13;4.30;;;;;;;8.29;100.00;98052.11;5206104;55;1138902;-71
2022/02/18 21:44:14;;;;;;;18.90;5.10;;;;;;;8.52;100.00;98076.02;5202862;55;1138802;-77
2022/02/18 21:49:23;;;;;;;19.27;5.63;;;;;;;8.77;100.00;98086.85;5198955;55;1138918;-78
2022/02/18 21:54:28;;;;;;;13.62;4.55;;;;;;;8.87;100.00;98099.02;5204073;55;1139099;-75
2022/02/18 21:59:33;;;;;;;9.50;4.57;;;;;;;8.90;100.00;98094.23;5203739;55;1246371;-74
2022/02/18 22:04:39;;;;;;;13.45;4.22;;;;;;;9.00;100.00;98101.48;5169615;55;1136802;-75
2022/02/18 22:09:44;;;;;;;12.60;3.70;;;;;;;9.10;100.00;98110.52;5165516;55;1139062;-74
2022/02/18 22:14:50;;;;;;;9.03;3.03;;;;;;;9.09;100.00;98085.97;5164659;55;1139099;-72
2022/02/18 22:19:56;;;;;;;214.53;106.03;;;;;;;9.10;100.00;98096.02;5165175;55;1136704;-74
2022/02/18 22:25:02;;;;;;;73.70;19.77;;;;;;;9.11;100.00;98104.26;5162707;55;1145355;-69
2022/02/18 22:30:09;;;;;;;42.60;11.30;;;;;;;9.09;100.00;98109.70;5161437;55;1141111;-71
2022/02/18 22:35:15;;;;;;;7.80;1.93;;;;;;;9.15;96.07;98121.39;5164197;55;1141113;-75
2022/02/18 22:40:20;;;;;;;19.17;6.77;;;;;;;9.17;91.90;98108.34;5165424;55;1134748;-69
2022/02/18 22:45:26;;;;;;;13.03;3.13;;;;;;;9.11;85.53;98130.12;5161326;55;1136957;-72
2022/02/18 22:50:32;;;;;;;7.90;1.83;;;;;;;9.15;81.45;98114.80;5167256;55;1136850;-71
2022/02/18 22:55:38;;;;;;;4.67;1.30;;;;;;;9.07;80.02;98116.13;5182389;55;1134799;-75
2022/02/18 23:01:05;;;;;;;4.10;1.07;;;;;;;9.02;79.12;98115.30;5209085;55;1133088;-73
2022/02/18 23:06:12;;;;;;;2.93;0.90;;;;;;;8.98;78.04;98116.64;5177446;55;1132721;-72
2022/02/18 23:11:19;;;;;;;5.27;0.73;;;;;;;9.04;76.26;98138.86;5157696;55;1132672;-74
2022/02/18 23:16:25;;;;;;;2.08;1.85;;;;;;;9.12;73.43;98144.97;5174213;54;1134702;-69
2022/02/18 23:21:31;;;;;;;2.40;0.68;;;;;;;9.20;73.67;98183.67;5119423;56;1134702;-73
2022/02/18 23:26:38;;;;;;;4.13;0.80;;;;;;;9.04;76.50;98189.78;5107457;56;1134630;-72
2022/02/18 23:31:45;;;;;;;4.87;0.70;;;;;;;8.84;75.05;98180.59;4980734;57;1132520;-74
2022/02/18 23:36:50;;;;;;;4.10;1.30;;;;;;;8.75;74.95;98203.46;5124463;55;1132588;-72
2022/02/18 23:41:56;;;;;;;7.33;1.00;;;;;;;8.62;77.17;98215.48;5129040;55;1132668;-72